sensor_id;sensor_type;location;lat;lon;timestamp;temperature;humidity
15040;DHT22;7617;47.366;8.558;2024-03-08T00:01:05;5.70;99.90
15040;DHT22;7617;47.366;8.558;2024-03-08T00:03:34;5.70;99.90
15040;DHT22;7617;47.366;8.558;2024-03-08T00:06:03;5.80;99.90
15040;DHT22;7617;47.366;8.558;2024-03-08T00:08:33;5.70;99.90
15040;DHT22;7617;47.366;8.558;2024-03-08T00:11:01;5.70;99.90
15040;DHT22;7617;47.366;8.558;2024-03-08T00:13:30;5.70;99.90
15040;DHT22;7617;47.366;8.558;2024-03-08T00:16:00;5.70;99.90
15040;DHT22;7617;47.366;8.558;2024-03-08T00:18:29;5.70;99.90
15040;DHT22;7617;47.366;8.558;2024-03-08T00:20:57;5.60;99.90
15040;DHT22;7617;47.366;8.558;2024-03-08T00:23:26;5.70;99.90
15040;DHT22;7617;47.366;8.558;2024-03-08T00:25:55;5.60;99.90
15040;DHT22;7617;47.366;8.558;2024-03-08T00:28:23;5.50;99.90
15040;DHT22;7617;47.366;8.558;2024-03-08T00:30:52;5.50;99.90
15040;DHT22;7617;47.366;8.558;2024-03-08T00:33:21;5.50;99.90
15040;DHT22;7617;47.366;8.558;2024-03-08T00:35:49;5.30;99.90
15040;DHT22;7617;47.366;8.558;2024-03-08T00:38:18;5.40;99.90
15040;DHT22;7617;47.366;8.558;2024-03-08T00:40:46;5.30;99.90
15040;DHT22;7617;47.366;8.558;2024-03-08T00:43:14;5.30;99.90
15040;DHT22;7617;47.366;8.558;2024-03-08T00:45:43;5.40;99.90
15040;DHT22;7617;47.366;8.558;2024-03-08T00:48:11;5.30;99.90
15040;DHT22;7617;47.366;8.558;2024-03-08T00:50:40;5.10;99.90
15040;DHT22;7617;47.366;8.558;2024-03-08T00:53:09;5.00;99.90
15040;DHT22;7617;47.366;8.558;2024-03-08T00:55:38;5.10;99.90
15040;DHT22;7617;47.366;8.558;2024-03-08T00:58:06;5.20;99.90
15040;DHT22;7617;47.366;8.558;2024-03-08T01:00:36;5.30;99.90
15040;DHT22;7617;47.366;8.558;2024-03-08T01:03:05;5.30;99.90
15040;DHT22;7617;47.366;8.558;2024-03-08T01:05:34;5.30;99.90
15040;DHT22;7617;47.366;8.558;2024-03-08T01:08:04;5.40;99.90
15040;DHT22;7617;47.366;8.558;2024-03-08T01:10:32;5.40;99.90
15040;DHT22;7617;47.366;8.558;2024-03-08T01:13:00;5.40;99.90
15040;DHT22;7617;47.366;8.558;2024-03-08T01:15:28;5.30;99.90
15040;DHT22;7617;47.366;8.558;2024-03-08T01:17:57;5.30;99.90
15040;DHT22;7617;47.366;8.558;2024-03-08T01:20:25;5.30;99.90
15040;DHT22;7617;47.366;8.558;2024-03-08T01:22:54;5.30;99.90
15040;DHT22;7617;47.366;8.558;2024-03-08T01:25:23;5.20;99.90
15040;DHT22;7617;47.366;8.558;2024-03-08T01:27:51;5.20;99.90
15040;DHT22;7617;47.366;8.558;2024-03-08T01:30:20;5.20;99.90
15040;DHT22;7617;47.366;8.558;2024-03-08T01:32:48;5.10;99.90
15040;DHT22;7617;47.366;8.558;2024-03-08T01:35:17;5.10;99.90
15040;DHT22;7617;47.366;8.558;2024-03-08T01:37:45;5.10;99.90
15040;DHT22;7617;47.366;8.558;2024-03-08T01:40:13;5.10;99.90
15040;DHT22;7617;47.366;8.558;2024-03-08T01:42:43;5.10;99.90
15040;DHT22;7617;47.366;8.558;2024-03-08T01:45:11;5.10;99.90
15040;DHT22;7617;47.366;8.558;2024-03-08T01:47:40;5.10;99.90
15040;DHT22;7617;47.366;8.558;2024-03-08T01:50:08;5.20;99.90
15040;DHT22;7617;47.366;8.558;2024-03-08T01:52:37;5.20;99.90
15040;DHT22;7617;47.366;8.558;2024-03-08T01:55:06;5.20;99.90
15040;DHT22;7617;47.366;8.558;2024-03-08T01:57:34;5.20;99.90
15040;DHT22;7617;47.366;8.558;2024-03-08T02:00:07;5.20;99.90
15040;DHT22;7617;47.366;8.558;2024-03-08T02:02:37;5.10;99.90
15040;DHT22;7617;47.366;8.558;2024-03-08T02:05:06;5.10;99.90
15040;DHT22;7617;47.366;8.558;2024-03-08T02:07:35;5.10;99.90
15040;DHT22;7617;47.366;8.558;2024-03-08T02:10:04;5.10;99.90
15040;DHT22;7617;47.366;8.558;2024-03-08T02:12:33;5.10;99.90
15040;DHT22;7617;47.366;8.558;2024-03-08T02:15:01;5.10;99.90
15040;DHT22;7617;47.366;8.558;2024-03-08T02:17:31;5.10;99.90
15040;DHT22;7617;47.366;8.558;2024-03-08T02:20:00;5.10;99.90
15040;DHT22;7617;47.366;8.558;2024-03-08T02:22:32;5.10;99.90
15040;DHT22;7617;47.366;8.558;2024-03-08T02:25:00;5.10;99.90
15040;DHT22;7617;47.366;8.558;2024-03-08T02:27:30;5.10;99.90
15040;DHT22;7617;47.366;8.558;2024-03-08T02:29:59;5.10;99.90
15040;DHT22;7617;47.366;8.558;2024-03-08T02:32:28;5.10;99.90
15040;DHT22;7617;47.366;8.558;2024-03-08T02:34:57;5.00;99.90
15040;DHT22;7617;47.366;8.558;2024-03-08T02:37:26;5.10;99.90
15040;DHT22;7617;47.366;8.558;2024-03-08T02:39:56;5.10;99.90
15040;DHT22;7617;47.366;8.558;2024-03-08T02:42:24;5.20;99.90
15040;DHT22;7617;47.366;8.558;2024-03-08T02:44:53;5.20;99.90
15040;DHT22;7617;47.366;8.558;2024-03-08T02:47:21;5.10;99.90
15040;DHT22;7617;47.366;8.558;2024-03-08T02:49:52;5.10;99.90
15040;DHT22;7617;47.366;8.558;2024-03-08T02:52:20;5.20;99.90
15040;DHT22;7617;47.366;8.558;2024-03-08T02:54:48;5.10;99.90
15040;DHT22;7617;47.366;8.558;2024-03-08T02:57:18;5.10;99.90
15040;DHT22;7617;47.366;8.558;2024-03-08T02:59:46;5.10;99.90
15040;DHT22;7617;47.366;8.558;2024-03-08T03:02:14;5.10;99.90
15040;DHT22;7617;47.366;8.558;2024-03-08T03:04:43;5.20;99.90
15040;DHT22;7617;47.366;8.558;2024-03-08T03:07:11;5.20;99.90
15040;DHT22;7617;47.366;8.558;2024-03-08T03:09:39;5.20;99.90
15040;DHT22;7617;47.366;8.558;2024-03-08T03:12:08;5.20;99.90
15040;DHT22;7617;47.366;8.558;2024-03-08T03:14:38;5.20;99.90
15040;DHT22;7617;47.366;8.558;2024-03-08T03:17:06;5.30;99.90
15040;DHT22;7617;47.366;8.558;2024-03-08T03:19:37;5.40;99.90
15040;DHT22;7617;47.366;8.558;2024-03-08T03:22:06;5.40;99.90
15040;DHT22;7617;47.366;8.558;2024-03-08T03:24:36;5.50;99.90
15040;DHT22;7617;47.366;8.558;2024-03-08T03:27:05;5.50;99.90
15040;DHT22;7617;47.366;8.558;2024-03-08T03:29:39;5.60;99.90
15040;DHT22;7617;47.366;8.558;2024-03-08T03:32:09;5.70;99.90
15040;DHT22;7617;47.366;8.558;2024-03-08T03:34:39;5.80;99.90
15040;DHT22;7617;47.366;8.558;2024-03-08T03:37:07;5.80;99.90
15040;DHT22;7617;47.366;8.558;2024-03-08T03:39:39;5.90;99.90
15040;DHT22;7617;47.366;8.558;2024-03-08T03:42:15;5.80;99.90
15040;DHT22;7617;47.366;8.558;2024-03-08T03:44:46;5.80;99.90
15040;DHT22;7617;47.366;8.558;2024-03-08T03:47:15;5.80;99.90
15040;DHT22;7617;47.366;8.558;2024-03-08T03:49:43;5.80;99.90
15040;DHT22;7617;47.366;8.558;2024-03-08T03:52:12;5.80;99.90
15040;DHT22;7617;47.366;8.558;2024-03-08T03:54:40;5.70;99.90
15040;DHT22;7617;47.366;8.558;2024-03-08T03:57:08;5.70;99.90
15040;DHT22;7617;47.366;8.558;2024-03-08T03:59:36;5.70;99.90
15040;DHT22;7617;47.366;8.558;2024-03-08T04:02:06;5.60;99.90
15040;DHT22;7617;47.366;8.558;2024-03-08T04:04:34;5.60;99.90
15040;DHT22;7617;47.366;8.558;2024-03-08T04:07:02;5.60;99.90
15040;DHT22;7617;47.366;8.558;2024-03-08T04:09:31;5.60;99.90
15040;DHT22;7617;47.366;8.558;2024-03-08T04:12:00;5.60;99.90
15040;DHT22;7617;47.366;8.558;2024-03-08T04:14:28;5.60;99.90
15040;DHT22;7617;47.366;8.558;2024-03-08T04:16:57;5.60;99.90
15040;DHT22;7617;47.366;8.558;2024-03-08T04:19:26;5.60;99.90
15040;DHT22;7617;47.366;8.558;2024-03-08T04:21:55;5.70;99.90
15040;DHT22;7617;47.366;8.558;2024-03-08T04:24:24;5.60;99.90
15040;DHT22;7617;47.366;8.558;2024-03-08T04:26:52;5.60;99.90
15040;DHT22;7617;47.366;8.558;2024-03-08T04:29:20;5.70;99.90
15040;DHT22;7617;47.366;8.558;2024-03-08T04:31:48;5.70;99.90
15040;DHT22;7617;47.366;8.558;2024-03-08T04:34:21;5.60;99.90
15040;DHT22;7617;47.366;8.558;2024-03-08T04:36:50;5.60;99.90
15040;DHT22;7617;47.366;8.558;2024-03-08T04:39:19;5.50;99.90
15040;DHT22;7617;47.366;8.558;2024-03-08T04:41:49;5.50;99.90
15040;DHT22;7617;47.366;8.558;2024-03-08T04:44:18;5.50;99.90
15040;DHT22;7617;47.366;8.558;2024-03-08T04:46:46;5.40;99.90
15040;DHT22;7617;47.366;8.558;2024-03-08T04:49:14;5.50;99.90
15040;DHT22;7617;47.366;8.558;2024-03-08T04:51:43;5.50;99.90
15040;DHT22;7617;47.366;8.558;2024-03-08T04:54:13;5.50;99.90
15040;DHT22;7617;47.366;8.558;2024-03-08T04:56:41;5.60;99.90
15040;DHT22;7617;47.366;8.558;2024-03-08T04:59:09;5.60;99.90
15040;DHT22;7617;47.366;8.558;2024-03-08T05:01:38;5.70;99.90
15040;DHT22;7617;47.366;8.558;2024-03-08T05:04:06;5.70;99.90
15040;DHT22;7617;47.366;8.558;2024-03-08T05:06:36;5.80;99.90
15040;DHT22;7617;47.366;8.558;2024-03-08T05:09:04;5.80;99.90
15040;DHT22;7617;47.366;8.558;2024-03-08T05:11:42;5.90;99.90
15040;DHT22;7617;47.366;8.558;2024-03-08T05:14:12;6.00;99.90
15040;DHT22;7617;47.366;8.558;2024-03-08T05:16:43;6.00;99.90
15040;DHT22;7617;47.366;8.558;2024-03-08T05:19:18;6.10;99.90
15040;DHT22;7617;47.366;8.558;2024-03-08T05:21:48;6.10;99.90
15040;DHT22;7617;47.366;8.558;2024-03-08T05:24:17;6.20;99.90
15040;DHT22;7617;47.366;8.558;2024-03-08T05:26:47;6.20;99.90
15040;DHT22;7617;47.366;8.558;2024-03-08T05:29:17;6.20;99.90
15040;DHT22;7617;47.366;8.558;2024-03-08T05:31:47;6.30;99.90
15040;DHT22;7617;47.366;8.558;2024-03-08T05:34:16;6.30;99.90
15040;DHT22;7617;47.366;8.558;2024-03-08T05:36:44;6.30;99.90
15040;DHT22;7617;47.366;8.558;2024-03-08T05:39:13;6.30;99.90
15040;DHT22;7617;47.366;8.558;2024-03-08T05:41:42;6.30;99.90
15040;DHT22;7617;47.366;8.558;2024-03-08T05:44:12;6.30;99.90
15040;DHT22;7617;47.366;8.558;2024-03-08T05:46:41;6.30;99.90
15040;DHT22;7617;47.366;8.558;2024-03-08T05:49:09;6.30;99.90
15040;DHT22;7617;47.366;8.558;2024-03-08T05:51:40;6.30;99.90
15040;DHT22;7617;47.366;8.558;2024-03-08T05:54:10;6.40;99.90
15040;DHT22;7617;47.366;8.558;2024-03-08T05:56:42;6.40;99.90
15040;DHT22;7617;47.366;8.558;2024-03-08T05:59:13;6.30;99.90
15040;DHT22;7617;47.366;8.558;2024-03-08T06:01:42;6.30;99.90
15040;DHT22;7617;47.366;8.558;2024-03-08T06:04:10;6.30;99.90
15040;DHT22;7617;47.366;8.558;2024-03-08T06:06:39;6.30;99.90
15040;DHT22;7617;47.366;8.558;2024-03-08T06:09:09;6.30;99.90
15040;DHT22;7617;47.366;8.558;2024-03-08T06:11:42;6.10;99.90
15040;DHT22;7617;47.366;8.558;2024-03-08T06:14:10;6.10;99.90
15040;DHT22;7617;47.366;8.558;2024-03-08T06:16:40;6.00;99.90
15040;DHT22;7617;47.366;8.558;2024-03-08T06:19:11;5.90;99.90
15040;DHT22;7617;47.366;8.558;2024-03-08T06:21:39;5.80;99.90
15040;DHT22;7617;47.366;8.558;2024-03-08T06:24:08;5.70;99.90
15040;DHT22;7617;47.366;8.558;2024-03-08T06:26:37;5.60;99.90
15040;DHT22;7617;47.366;8.558;2024-03-08T06:29:08;5.60;99.90
15040;DHT22;7617;47.366;8.558;2024-03-08T06:31:37;5.60;99.90
15040;DHT22;7617;47.366;8.558;2024-03-08T06:34:07;5.70;99.90
15040;DHT22;7617;47.366;8.558;2024-03-08T06:36:37;5.70;99.90
15040;DHT22;7617;47.366;8.558;2024-03-08T06:39:05;5.80;99.90
15040;DHT22;7617;47.366;8.558;2024-03-08T06:41:37;5.90;99.90
15040;DHT22;7617;47.366;8.558;2024-03-08T06:44:06;5.90;99.90
15040;DHT22;7617;47.366;8.558;2024-03-08T06:46:36;6.00;99.90
15040;DHT22;7617;47.366;8.558;2024-03-08T06:49:04;6.10;99.90
15040;DHT22;7617;47.366;8.558;2024-03-08T06:51:36;6.10;99.90
15040;DHT22;7617;47.366;8.558;2024-03-08T06:54:04;6.10;99.90
15040;DHT22;7617;47.366;8.558;2024-03-08T06:56:36;6.00;99.90
15040;DHT22;7617;47.366;8.558;2024-03-08T06:59:04;6.10;99.90
15040;DHT22;7617;47.366;8.558;2024-03-08T07:01:33;6.10;99.90
15040;DHT22;7617;47.366;8.558;2024-03-08T07:04:04;6.10;99.90
15040;DHT22;7617;47.366;8.558;2024-03-08T07:06:33;6.20;99.90
15040;DHT22;7617;47.366;8.558;2024-03-08T07:09:03;6.30;99.90
15040;DHT22;7617;47.366;8.558;2024-03-08T07:11:32;6.20;99.90
15040;DHT22;7617;47.366;8.558;2024-03-08T07:14:02;6.20;99.90
15040;DHT22;7617;47.366;8.558;2024-03-08T07:16:33;6.30;99.90
15040;DHT22;7617;47.366;8.558;2024-03-08T07:19:02;6.30;99.90
15040;DHT22;7617;47.366;8.558;2024-03-08T07:21:32;6.30;99.90
15040;DHT22;7617;47.366;8.558;2024-03-08T07:24:00;6.30;99.90
15040;DHT22;7617;47.366;8.558;2024-03-08T07:26:47;6.30;99.90
15040;DHT22;7617;47.366;8.558;2024-03-08T07:29:17;6.10;99.90
15040;DHT22;7617;47.366;8.558;2024-03-08T07:31:45;6.10;99.90
15040;DHT22;7617;47.366;8.558;2024-03-08T07:34:22;6.20;99.90
15040;DHT22;7617;47.366;8.558;2024-03-08T07:36:50;6.30;99.90
15040;DHT22;7617;47.366;8.558;2024-03-08T07:39:18;6.40;99.90
15040;DHT22;7617;47.366;8.558;2024-03-08T07:41:49;6.50;99.90
15040;DHT22;7617;47.366;8.558;2024-03-08T07:44:20;6.60;99.90
15040;DHT22;7617;47.366;8.558;2024-03-08T07:46:48;6.60;99.90
15040;DHT22;7617;47.366;8.558;2024-03-08T07:49:16;6.50;99.90
15040;DHT22;7617;47.366;8.558;2024-03-08T07:51:45;6.30;99.90
15040;DHT22;7617;47.366;8.558;2024-03-08T07:54:13;6.30;99.90
15040;DHT22;7617;47.366;8.558;2024-03-08T07:56:41;6.00;99.90
15040;DHT22;7617;47.366;8.558;2024-03-08T07:59:11;6.10;99.90
15040;DHT22;7617;47.366;8.558;2024-03-08T08:01:40;6.10;99.90
15040;DHT22;7617;47.366;8.558;2024-03-08T08:04:08;6.10;99.90
15040;DHT22;7617;47.366;8.558;2024-03-08T08:06:39;6.10;99.90
15040;DHT22;7617;47.366;8.558;2024-03-08T08:09:08;6.00;99.90
15040;DHT22;7617;47.366;8.558;2024-03-08T08:11:40;5.90;99.90
15040;DHT22;7617;47.366;8.558;2024-03-08T08:14:11;5.90;99.90
15040;DHT22;7617;47.366;8.558;2024-03-08T08:16:40;6.00;99.90
15040;DHT22;7617;47.366;8.558;2024-03-08T08:19:09;6.10;99.90
15040;DHT22;7617;47.366;8.558;2024-03-08T08:21:41;6.20;99.90
15040;DHT22;7617;47.366;8.558;2024-03-08T08:24:09;6.20;99.90
15040;DHT22;7617;47.366;8.558;2024-03-08T08:26:37;6.30;99.90
15040;DHT22;7617;47.366;8.558;2024-03-08T08:29:07;6.50;99.90
15040;DHT22;7617;47.366;8.558;2024-03-08T08:31:37;6.70;99.90
15040;DHT22;7617;47.366;8.558;2024-03-08T08:34:05;6.90;99.90
15040;DHT22;7617;47.366;8.558;2024-03-08T08:36:34;7.10;99.90
15040;DHT22;7617;47.366;8.558;2024-03-08T08:39:04;7.10;99.90
15040;DHT22;7617;47.366;8.558;2024-03-08T08:41:33;7.20;99.90
15040;DHT22;7617;47.366;8.558;2024-03-08T08:44:01;7.20;99.90
15040;DHT22;7617;47.366;8.558;2024-03-08T08:46:43;7.20;99.90
15040;DHT22;7617;47.366;8.558;2024-03-08T08:49:11;7.30;99.90
15040;DHT22;7617;47.366;8.558;2024-03-08T08:54:10;7.10;99.90
15040;DHT22;7617;47.366;8.558;2024-03-08T08:56:41;7.10;99.90
15040;DHT22;7617;47.366;8.558;2024-03-08T08:59:10;7.00;99.90
15040;DHT22;7617;47.366;8.558;2024-03-08T09:01:40;6.90;99.90
15040;DHT22;7617;47.366;8.558;2024-03-08T09:04:10;6.90;99.90
15040;DHT22;7617;47.366;8.558;2024-03-08T09:06:39;6.80;99.90
15040;DHT22;7617;47.366;8.558;2024-03-08T09:09:08;6.70;99.90
15040;DHT22;7617;47.366;8.558;2024-03-08T09:14:08;6.70;99.90
15040;DHT22;7617;47.366;8.558;2024-03-08T09:16:38;6.80;99.90
15040;DHT22;7617;47.366;8.558;2024-03-08T09:19:07;6.80;99.90
15040;DHT22;7617;47.366;8.558;2024-03-08T09:26:36;7.00;99.90
15040;DHT22;7617;47.366;8.558;2024-03-08T09:29:05;6.90;99.90
15040;DHT22;7617;47.366;8.558;2024-03-08T09:31:33;6.80;99.90
15040;DHT22;7617;47.366;8.558;2024-03-08T09:34:02;6.70;99.90
15040;DHT22;7617;47.366;8.558;2024-03-08T09:36:30;6.70;99.90
15040;DHT22;7617;47.366;8.558;2024-03-08T09:39:01;6.70;99.90
15040;DHT22;7617;47.366;8.558;2024-03-08T09:41:29;6.70;99.90
15040;DHT22;7617;47.366;8.558;2024-03-08T09:43:58;6.70;99.90
15040;DHT22;7617;47.366;8.558;2024-03-08T09:48:55;7.00;99.90
15040;DHT22;7617;47.366;8.558;2024-03-08T09:51:28;6.90;99.90
15040;DHT22;7617;47.366;8.558;2024-03-08T09:53:57;6.90;99.90
15040;DHT22;7617;47.366;8.558;2024-03-08T09:56:31;7.00;99.90
15040;DHT22;7617;47.366;8.558;2024-03-08T09:59:00;7.10;99.90
15040;DHT22;7617;47.366;8.558;2024-03-08T10:01:59;7.30;99.90
15040;DHT22;7617;47.366;8.558;2024-03-08T10:07:00;7.20;99.90
15040;DHT22;7617;47.366;8.558;2024-03-08T10:11:58;7.00;99.90
15040;DHT22;7617;47.366;8.558;2024-03-08T10:14:27;7.10;99.90
15040;DHT22;7617;47.366;8.558;2024-03-08T10:16:55;7.10;99.90
15040;DHT22;7617;47.366;8.558;2024-03-08T10:19:26;7.20;99.90
15040;DHT22;7617;47.366;8.558;2024-03-08T10:21:57;7.10;99.90
15040;DHT22;7617;47.366;8.558;2024-03-08T10:24:26;7.10;99.90
15040;DHT22;7617;47.366;8.558;2024-03-08T10:27:00;7.10;99.90
15040;DHT22;7617;47.366;8.558;2024-03-08T10:29:31;7.10;99.90
15040;DHT22;7617;47.366;8.558;2024-03-08T10:32:01;7.10;99.90
15040;DHT22;7617;47.366;8.558;2024-03-08T10:34:32;7.20;99.90
15040;DHT22;7617;47.366;8.558;2024-03-08T10:37:04;7.40;99.90
15040;DHT22;7617;47.366;8.558;2024-03-08T10:39:35;7.40;99.90
15040;DHT22;7617;47.366;8.558;2024-03-08T10:42:11;7.50;99.90
15040;DHT22;7617;47.366;8.558;2024-03-08T10:44:51;7.60;99.90
15040;DHT22;7617;47.366;8.558;2024-03-08T10:47:26;7.70;99.90
15040;DHT22;7617;47.366;8.558;2024-03-08T10:50:06;7.70;99.90
15040;DHT22;7617;47.366;8.558;2024-03-08T10:52:40;7.70;99.90
15040;DHT22;7617;47.366;8.558;2024-03-08T10:55:10;7.70;99.90
15040;DHT22;7617;47.366;8.558;2024-03-08T10:57:42;7.70;99.90
15040;DHT22;7617;47.366;8.558;2024-03-08T11:00:12;7.80;99.90
15040;DHT22;7617;47.366;8.558;2024-03-08T11:02:43;7.70;99.90
15040;DHT22;7617;47.366;8.558;2024-03-08T11:05:16;7.70;99.90
15040;DHT22;7617;47.366;8.558;2024-03-08T11:07:59;7.60;99.90
15040;DHT22;7617;47.366;8.558;2024-03-08T11:10:28;7.60;99.90
15040;DHT22;7617;47.366;8.558;2024-03-08T11:12:57;7.70;99.90
15040;DHT22;7617;47.366;8.558;2024-03-08T11:15:26;7.80;99.90
15040;DHT22;7617;47.366;8.558;2024-03-08T11:17:58;7.90;99.90
15040;DHT22;7617;47.366;8.558;2024-03-08T11:20:27;7.90;99.90
15040;DHT22;7617;47.366;8.558;2024-03-08T11:23:00;8.00;99.90
15040;DHT22;7617;47.366;8.558;2024-03-08T11:25:36;8.00;99.90
15040;DHT22;7617;47.366;8.558;2024-03-08T11:28:13;8.00;99.90
15040;DHT22;7617;47.366;8.558;2024-03-08T11:30:47;8.00;99.90
15040;DHT22;7617;47.366;8.558;2024-03-08T11:33:36;7.90;99.90
15040;DHT22;7617;47.366;8.558;2024-03-08T11:36:08;7.90;99.90
15040;DHT22;7617;47.366;8.558;2024-03-08T11:38:40;8.00;99.90
15040;DHT22;7617;47.366;8.558;2024-03-08T11:41:08;8.10;99.90
15040;DHT22;7617;47.366;8.558;2024-03-08T11:43:45;8.20;99.70
15040;DHT22;7617;47.366;8.558;2024-03-08T11:46:15;8.20;99.80
15040;DHT22;7617;47.366;8.558;2024-03-08T11:48:46;8.20;99.90
15040;DHT22;7617;47.366;8.558;2024-03-08T11:51:15;8.20;99.90
15040;DHT22;7617;47.366;8.558;2024-03-08T11:53:49;8.20;99.90
15040;DHT22;7617;47.366;8.558;2024-03-08T11:56:18;8.40;99.90
15040;DHT22;7617;47.366;8.558;2024-03-08T11:58:54;8.50;99.80
15040;DHT22;7617;47.366;8.558;2024-03-08T12:03:53;7.50;99.00
15040;DHT22;7617;47.366;8.558;2024-03-08T12:06:22;8.20;99.60
15040;DHT22;7617;47.366;8.558;2024-03-08T12:08:50;12.90;99.90
15040;DHT22;7617;47.366;8.558;2024-03-08T12:11:18;8.20;99.50
15040;DHT22;7617;47.366;8.558;2024-03-08T12:16:20;8.10;99.50
15040;DHT22;7617;47.366;8.558;2024-03-08T12:18:51;8.10;99.70
15040;DHT22;7617;47.366;8.558;2024-03-08T12:21:20;8.20;99.80
15040;DHT22;7617;47.366;8.558;2024-03-08T12:24:03;8.20;99.70
15040;DHT22;7617;47.366;8.558;2024-03-08T12:29:18;8.20;99.80
15040;DHT22;7617;47.366;8.558;2024-03-08T12:31:50;8.40;99.60
15040;DHT22;7617;47.366;8.558;2024-03-08T12:34:19;8.40;99.30
15040;DHT22;7617;47.366;8.558;2024-03-08T12:36:49;8.40;99.40
15040;DHT22;7617;47.366;8.558;2024-03-08T12:39:22;8.50;99.50
15040;DHT22;7617;47.366;8.558;2024-03-08T12:41:54;8.40;99.50
15040;DHT22;7617;47.366;8.558;2024-03-08T12:44:23;8.40;99.80
15040;DHT22;7617;47.366;8.558;2024-03-08T12:46:53;8.40;99.90
15040;DHT22;7617;47.366;8.558;2024-03-08T12:49:21;8.50;99.90
15040;DHT22;7617;47.366;8.558;2024-03-08T12:51:50;8.50;99.60
15040;DHT22;7617;47.366;8.558;2024-03-08T12:56:50;8.50;99.60
15040;DHT22;7617;47.366;8.558;2024-03-08T12:59:20;8.50;99.60
15040;DHT22;7617;47.366;8.558;2024-03-08T13:01:49;8.50;99.60
15040;DHT22;7617;47.366;8.558;2024-03-08T13:04:19;8.60;99.60
15040;DHT22;7617;47.366;8.558;2024-03-08T13:06:48;8.60;99.20
15040;DHT22;7617;47.366;8.558;2024-03-08T13:09:21;8.70;99.40
15040;DHT22;7617;47.366;8.558;2024-03-08T13:11:50;8.80;99.20
15040;DHT22;7617;47.366;8.558;2024-03-08T13:14:18;8.80;99.20
15040;DHT22;7617;47.366;8.558;2024-03-08T13:16:47;8.80;99.00
15040;DHT22;7617;47.366;8.558;2024-03-08T13:21:49;8.70;98.70
15040;DHT22;7617;47.366;8.558;2024-03-08T13:24:18;8.60;99.10
15040;DHT22;7617;47.366;8.558;2024-03-08T13:26:47;8.70;98.90
15040;DHT22;7617;47.366;8.558;2024-03-08T13:29:17;8.70;98.90
15040;DHT22;7617;47.366;8.558;2024-03-08T13:31:46;8.80;98.90
15040;DHT22;7617;47.366;8.558;2024-03-08T13:36:55;8.80;98.60
15040;DHT22;7617;47.366;8.558;2024-03-08T13:39:27;8.90;98.70
15040;DHT22;7617;47.366;8.558;2024-03-08T13:41:56;8.90;98.60
15040;DHT22;7617;47.366;8.558;2024-03-08T13:44:24;8.90;98.60
15040;DHT22;7617;47.366;8.558;2024-03-08T13:46:52;8.90;98.50
15040;DHT22;7617;47.366;8.558;2024-03-08T13:49:21;8.90;98.60
15040;DHT22;7617;47.366;8.558;2024-03-08T13:51:49;8.90;98.50
15040;DHT22;7617;47.366;8.558;2024-03-08T13:54:18;8.80;98.60
15040;DHT22;7617;47.366;8.558;2024-03-08T13:56:47;8.80;98.80
15040;DHT22;7617;47.366;8.558;2024-03-08T13:59:16;8.70;99.10
15040;DHT22;7617;47.366;8.558;2024-03-08T14:01:45;8.90;99.00
15040;DHT22;7617;47.366;8.558;2024-03-08T14:04:14;8.90;99.20
15040;DHT22;7617;47.366;8.558;2024-03-08T14:06:43;8.80;98.50
15040;DHT22;7617;47.366;8.558;2024-03-08T14:09:12;8.80;98.70
15040;DHT22;7617;47.366;8.558;2024-03-08T14:11:45;8.90;98.60
15040;DHT22;7617;47.366;8.558;2024-03-08T14:14:13;8.80;97.90
15040;DHT22;7617;47.366;8.558;2024-03-08T14:16:41;8.80;98.20
15040;DHT22;7617;47.366;8.558;2024-03-08T14:19:11;8.70;98.00
15040;DHT22;7617;47.366;8.558;2024-03-08T14:21:40;8.60;98.20
15040;DHT22;7617;47.366;8.558;2024-03-08T14:24:09;8.70;98.60
15040;DHT22;7617;47.366;8.558;2024-03-08T14:26:37;8.70;98.60
15040;DHT22;7617;47.366;8.558;2024-03-08T14:29:06;8.80;98.30
15040;DHT22;7617;47.366;8.558;2024-03-08T14:31:37;8.80;98.60
15040;DHT22;7617;47.366;8.558;2024-03-08T14:34:05;8.90;98.90
15040;DHT22;7617;47.366;8.558;2024-03-08T14:36:35;9.20;99.00
15040;DHT22;7617;47.366;8.558;2024-03-08T14:39:03;9.50;98.40
15040;DHT22;7617;47.366;8.558;2024-03-08T14:41:31;9.70;97.90
15040;DHT22;7617;47.366;8.558;2024-03-08T14:46:29;9.70;97.50
15040;DHT22;7617;47.366;8.558;2024-03-08T14:56:24;9.40;97.40
15040;DHT22;7617;47.366;8.558;2024-03-08T15:03:57;9.40;96.90
15040;DHT22;7617;47.366;8.558;2024-03-08T15:08:58;9.20;97.10
15040;DHT22;7617;47.366;8.558;2024-03-08T15:21:24;9.80;96.80
15040;DHT22;7617;47.366;8.558;2024-03-08T15:26:21;9.90;96.90
15040;DHT22;7617;47.366;8.558;2024-03-08T15:28:49;9.90;96.80
15040;DHT22;7617;47.366;8.558;2024-03-08T15:31:19;9.90;96.70
15040;DHT22;7617;47.366;8.558;2024-03-08T15:33:50;9.80;96.80
15040;DHT22;7617;47.366;8.558;2024-03-08T15:36:29;9.80;97.10
15040;DHT22;7617;47.366;8.558;2024-03-08T15:38:58;9.80;97.20
15040;DHT22;7617;47.366;8.558;2024-03-08T15:53:54;10.10;97.10
15040;DHT22;7617;47.366;8.558;2024-03-08T15:58:53;10.10;96.90
15040;DHT22;7617;47.366;8.558;2024-03-08T16:08:51;9.70;97.50
15040;DHT22;7617;47.366;8.558;2024-03-08T16:11:21;9.50;97.80
15040;DHT22;7617;47.366;8.558;2024-03-08T16:26:15;9.40;98.70
15040;DHT22;7617;47.366;8.558;2024-03-08T16:28:45;9.40;98.70
15040;DHT22;7617;47.366;8.558;2024-03-08T16:31:14;9.60;99.00
15040;DHT22;7617;47.366;8.558;2024-03-08T16:33:42;9.60;98.90
15040;DHT22;7617;47.366;8.558;2024-03-08T16:36:11;9.70;98.80
15040;DHT22;7617;47.366;8.558;2024-03-08T16:41:12;9.60;98.70
15040;DHT22;7617;47.366;8.558;2024-03-08T16:46:12;9.60;98.80
15040;DHT22;7617;47.366;8.558;2024-03-08T16:51:09;9.50;99.00
15040;DHT22;7617;47.366;8.558;2024-03-08T16:53:38;9.50;99.00
15040;DHT22;7617;47.366;8.558;2024-03-08T16:56:08;9.40;99.10
15040;DHT22;7617;47.366;8.558;2024-03-08T17:01:16;9.40;99.30
15040;DHT22;7617;47.366;8.558;2024-03-08T17:03:45;9.40;99.50
15040;DHT22;7617;47.366;8.558;2024-03-08T17:06:26;9.40;99.50
15040;DHT22;7617;47.366;8.558;2024-03-08T17:11:23;9.30;99.60
15040;DHT22;7617;47.366;8.558;2024-03-08T17:13:51;9.30;99.70
15040;DHT22;7617;47.366;8.558;2024-03-08T17:16:21;9.30;99.70
15040;DHT22;7617;47.366;8.558;2024-03-08T17:18:52;9.30;99.80
15040;DHT22;7617;47.366;8.558;2024-03-08T17:21:21;9.30;99.90
15040;DHT22;7617;47.366;8.558;2024-03-08T17:23:49;9.30;99.90
15040;DHT22;7617;47.366;8.558;2024-03-08T17:28:46;9.20;99.90
15040;DHT22;7617;47.366;8.558;2024-03-08T17:31:16;9.20;99.90
15040;DHT22;7617;47.366;8.558;2024-03-08T17:33:45;9.20;99.90
15040;DHT22;7617;47.366;8.558;2024-03-08T17:36:14;9.10;99.90
15040;DHT22;7617;47.366;8.558;2024-03-08T17:38:44;9.20;99.90
15040;DHT22;7617;47.366;8.558;2024-03-08T17:41:17;9.20;99.90
15040;DHT22;7617;47.366;8.558;2024-03-08T17:43:50;9.30;99.90
15040;DHT22;7617;47.366;8.558;2024-03-08T17:48:49;9.20;99.90
15040;DHT22;7617;47.366;8.558;2024-03-08T17:53:49;9.20;99.90
15040;DHT22;7617;47.366;8.558;2024-03-08T17:56:21;9.20;99.90
15040;DHT22;7617;47.366;8.558;2024-03-08T17:58:50;9.10;99.90
15040;DHT22;7617;47.366;8.558;2024-03-08T18:01:18;9.10;99.90
15040;DHT22;7617;47.366;8.558;2024-03-08T18:03:48;9.00;99.90
15040;DHT22;7617;47.366;8.558;2024-03-08T18:08:51;9.00;99.90
15040;DHT22;7617;47.366;8.558;2024-03-08T18:11:19;9.00;99.90
15040;DHT22;7617;47.366;8.558;2024-03-08T18:18:48;9.10;99.90
15040;DHT22;7617;47.366;8.558;2024-03-08T18:21:17;9.10;99.90
15040;DHT22;7617;47.366;8.558;2024-03-08T18:23:46;9.10;99.90